sensor_id;sensor_type;location;lat;lon;timestamp;pressure;altitude;pressure_sealevel;temperature;humidity
70370;BME280;57790;51.356;-2.906;2023-03-14T00:00:25;99287.34;;;10.84;100.00
70370;BME280;57790;51.356;-2.906;2023-03-14T00:03:28;99294.06;;;10.73;100.00
70370;BME280;57790;51.356;-2.906;2023-03-14T00:06:28;99313.84;;;10.70;100.00
70370;BME280;57790;51.356;-2.906;2023-03-14T00:09:29;99317.25;;;10.64;100.00
70370;BME280;57790;51.356;-2.906;2023-03-14T00:12:30;99319.66;;;10.53;100.00
70370;BME280;57790;51.356;-2.906;2023-03-14T00:15:33;99333.91;;;10.52;100.00
70370;BME280;57790;51.356;-2.906;2023-03-14T00:18:34;99343.84;;;10.36;100.00
70370;BME280;57790;51.356;-2.906;2023-03-14T00:21:34;99363.44;;;10.42;100.00
70370;BME280;57790;51.356;-2.906;2023-03-14T00:24:35;99366.66;;;10.37;100.00
70370;BME280;57790;51.356;-2.906;2023-03-14T00:27:36;99379.25;;;10.29;100.00
70370;BME280;57790;51.356;-2.906;2023-03-14T00:30:37;99399.63;;;10.28;100.00
70370;BME280;57790;51.356;-2.906;2023-03-14T00:33:37;99417.91;;;10.23;100.00
70370;BME280;57790;51.356;-2.906;2023-03-14T00:36:38;99426.88;;;10.22;100.00
70370;BME280;57790;51.356;-2.906;2023-03-14T00:39:38;99440.47;;;10.19;100.00
70370;BME280;57790;51.356;-2.906;2023-03-14T00:42:39;99457.38;;;10.18;100.00
70370;BME280;57790;51.356;-2.906;2023-03-14T00:45:39;99465.25;;;10.11;100.00
70370;BME280;57790;51.356;-2.906;2023-03-14T00:48:40;99469.53;;;10.12;100.00
70370;BME280;57790;51.356;-2.906;2023-03-14T00:51:40;99484.44;;;10.13;100.00
70370;BME280;57790;51.356;-2.906;2023-03-14T00:54:40;99496.84;;;10.13;100.00
70370;BME280;57790;51.356;-2.906;2023-03-14T00:57:41;99500.44;;;10.05;100.00
70370;BME280;57790;51.356;-2.906;2023-03-14T01:00:42;99510.22;;;10.05;100.00
70370;BME280;57790;51.356;-2.906;2023-03-14T01:03:42;99520.59;;;10.06;100.00
70370;BME280;57790;51.356;-2.906;2023-03-14T01:06:42;99530.81;;;10.09;100.00
70370;BME280;57790;51.356;-2.906;2023-03-14T01:09:43;99531.97;;;10.00;100.00
70370;BME280;57790;51.356;-2.906;2023-03-14T01:12:43;99548.69;;;10.01;100.00
70370;BME280;57790;51.356;-2.906;2023-03-14T01:15:44;99548.59;;;9.94;100.00
70370;BME280;57790;51.356;-2.906;2023-03-14T01:18:45;99563.13;;;9.83;100.00
70370;BME280;57790;51.356;-2.906;2023-03-14T01:21:46;99561.69;;;9.81;100.00
70370;BME280;57790;51.356;-2.906;2023-03-14T01:24:47;99570.63;;;9.80;100.00
70370;BME280;57790;51.356;-2.906;2023-03-14T01:27:47;99578.94;;;9.77;100.00
70370;BME280;57790;51.356;-2.906;2023-03-14T01:30:47;99586.06;;;9.76;100.00
70370;BME280;57790;51.356;-2.906;2023-03-14T01:33:48;99600.22;;;9.69;100.00
70370;BME280;57790;51.356;-2.906;2023-03-14T01:36:48;99614.28;;;9.69;100.00
70370;BME280;57790;51.356;-2.906;2023-03-14T01:39:49;99619.41;;;9.71;100.00
70370;BME280;57790;51.356;-2.906;2023-03-14T01:42:57;99634.91;;;9.74;100.00
70370;BME280;57790;51.356;-2.906;2023-03-14T01:49:03;99629.50;;;9.67;100.00
70370;BME280;57790;51.356;-2.906;2023-03-14T01:55:21;99645.38;;;9.67;100.00
70370;BME280;57790;51.356;-2.906;2023-03-14T01:58:25;99654.31;;;9.66;100.00
70370;BME280;57790;51.356;-2.906;2023-03-14T02:01:28;99664.00;;;9.59;100.00
70370;BME280;57790;51.356;-2.906;2023-03-14T02:04:33;99666.38;;;9.54;100.00
70370;BME280;57790;51.356;-2.906;2023-03-14T02:07:47;99664.91;;;9.51;100.00
70370;BME280;57790;51.356;-2.906;2023-03-14T02:10:50;99671.41;;;9.49;100.00
70370;BME280;57790;51.356;-2.906;2023-03-14T02:13:50;99680.97;;;9.50;100.00
70370;BME280;57790;51.356;-2.906;2023-03-14T02:16:51;99683.97;;;9.47;100.00
70370;BME280;57790;51.356;-2.906;2023-03-14T02:23:16;99695.47;;;9.39;100.00
70370;BME280;57790;51.356;-2.906;2023-03-14T02:26:24;99701.56;;;9.40;100.00
70370;BME280;57790;51.356;-2.906;2023-03-14T02:29:28;99704.22;;;9.40;100.00
70370;BME280;57790;51.356;-2.906;2023-03-14T02:32:31;99704.56;;;9.37;100.00
70370;BME280;57790;51.356;-2.906;2023-03-14T02:35:36;99708.78;;;9.31;100.00
70370;BME280;57790;51.356;-2.906;2023-03-14T02:38:45;99723.00;;;9.30;100.00
70370;BME280;57790;51.356;-2.906;2023-03-14T02:41:46;99724.00;;;9.29;100.00
70370;BME280;57790;51.356;-2.906;2023-03-14T02:48:19;99744.84;;;9.24;100.00
70370;BME280;57790;51.356;-2.906;2023-03-14T02:51:21;99752.91;;;9.31;100.00
70370;BME280;57790;51.356;-2.906;2023-03-14T02:54:22;99758.75;;;9.26;100.00
70370;BME280;57790;51.356;-2.906;2023-03-14T02:57:23;99763.38;;;9.24;100.00
70370;BME280;57790;51.356;-2.906;2023-03-14T03:00:23;99763.38;;;9.24;100.00
70370;BME280;57790;51.356;-2.906;2023-03-14T03:03:24;99770.97;;;9.27;100.00
70370;BME280;57790;51.356;-2.906;2023-03-14T03:06:24;99769.31;;;9.26;100.00
70370;BME280;57790;51.356;-2.906;2023-03-14T03:09:25;99782.69;;;9.24;100.00
70370;BME280;57790;51.356;-2.906;2023-03-14T03:12:25;99805.34;;;9.27;100.00
70370;BME280;57790;51.356;-2.906;2023-03-14T03:15:26;99800.06;;;9.27;100.00
70370;BME280;57790;51.356;-2.906;2023-03-14T03:18:27;99815.09;;;9.27;100.00
70370;BME280;57790;51.356;-2.906;2023-03-14T03:21:27;99821.03;;;9.29;100.00
70370;BME280;57790;51.356;-2.906;2023-03-14T03:24:28;99821.50;;;9.32;100.00
70370;BME280;57790;51.356;-2.906;2023-03-14T03:27:30;99835.09;;;9.29;100.00
70370;BME280;57790;51.356;-2.906;2023-03-14T03:30:31;99839.56;;;9.29;100.00
70370;BME280;57790;51.356;-2.906;2023-03-14T03:33:32;99841.56;;;9.27;100.00
70370;BME280;57790;51.356;-2.906;2023-03-14T03:36:32;99852.78;;;9.29;100.00
70370;BME280;57790;51.356;-2.906;2023-03-14T03:39:33;99859.53;;;9.31;100.00
70370;BME280;57790;51.356;-2.906;2023-03-14T03:42:34;99863.69;;;9.25;100.00
70370;BME280;57790;51.356;-2.906;2023-03-14T03:45:34;99872.63;;;9.24;100.00
70370;BME280;57790;51.356;-2.906;2023-03-14T03:48:35;99870.31;;;9.21;100.00
70370;BME280;57790;51.356;-2.906;2023-03-14T03:51:35;99879.91;;;9.22;100.00
70370;BME280;57790;51.356;-2.906;2023-03-14T03:54:36;99891.47;;;9.21;100.00
70370;BME280;57790;51.356;-2.906;2023-03-14T03:57:36;99906.34;;;9.22;100.00
70370;BME280;57790;51.356;-2.906;2023-03-14T04:00:37;99906.34;;;9.22;100.00
70370;BME280;57790;51.356;-2.906;2023-03-14T04:03:37;99913.47;;;9.22;100.00
70370;BME280;57790;51.356;-2.906;2023-03-14T04:06:40;99923.56;;;9.18;100.00
70370;BME280;57790;51.356;-2.906;2023-03-14T04:09:42;99924.56;;;9.17;100.00
70370;BME280;57790;51.356;-2.906;2023-03-14T04:12:42;99927.56;;;9.14;100.00
70370;BME280;57790;51.356;-2.906;2023-03-14T04:15:42;99934.34;;;9.09;100.00
70370;BME280;57790;51.356;-2.906;2023-03-14T04:18:43;99944.09;;;9.08;100.00
70370;BME280;57790;51.356;-2.906;2023-03-14T04:21:43;99944.09;;;9.08;100.00
70370;BME280;57790;51.356;-2.906;2023-03-14T04:24:45;99953.56;;;9.03;100.00
70370;BME280;57790;51.356;-2.906;2023-03-14T04:27:46;99957.72;;;8.97;100.00
70370;BME280;57790;51.356;-2.906;2023-03-14T04:30:47;99969.41;;;9.03;100.00
70370;BME280;57790;51.356;-2.906;2023-03-14T04:33:47;99975.06;;;9.00;100.00
70370;BME280;57790;51.356;-2.906;2023-03-14T04:36:48;99984.63;;;9.01;100.00
70370;BME280;57790;51.356;-2.906;2023-03-14T04:39:48;99984.47;;;8.94;100.00
70370;BME280;57790;51.356;-2.906;2023-03-14T04:42:49;100000.69;;;8.91;100.00
70370;BME280;57790;51.356;-2.906;2023-03-14T04:45:49;99992.09;;;8.89;100.00
70370;BME280;57790;51.356;-2.906;2023-03-14T04:48:49;100002.50;;;8.90;100.00
70370;BME280;57790;51.356;-2.906;2023-03-14T04:51:50;100005.16;;;8.82;100.00
70370;BME280;57790;51.356;-2.906;2023-03-14T04:54:51;100005.16;;;8.82;100.00
70370;BME280;57790;51.356;-2.906;2023-03-14T04:57:51;100008.13;;;8.79;100.00
70370;BME280;57790;51.356;-2.906;2023-03-14T05:00:52;100010.59;;;8.81;100.00
70370;BME280;57790;51.356;-2.906;2023-03-14T05:03:52;100008.66;;;8.75;100.00
70370;BME280;57790;51.356;-2.906;2023-03-14T05:06:52;100011.28;;;8.75;100.00
70370;BME280;57790;51.356;-2.906;2023-03-14T05:09:53;100017.22;;;8.77;100.00
70370;BME280;57790;51.356;-2.906;2023-03-14T05:12:53;100029.78;;;8.75;100.00
70370;BME280;57790;51.356;-2.906;2023-03-14T05:16:03;100037.25;;;8.71;100.00
70370;BME280;57790;51.356;-2.906;2023-03-14T05:19:04;100033.13;;;8.69;100.00
70370;BME280;57790;51.356;-2.906;2023-03-14T05:22:04;100048.28;;;8.67;100.00
70370;BME280;57790;51.356;-2.906;2023-03-14T05:25:05;100048.63;;;8.63;100.00
70370;BME280;57790;51.356;-2.906;2023-03-14T05:28:07;100044.00;;;8.65;100.00
70370;BME280;57790;51.356;-2.906;2023-03-14T05:31:08;100046.66;;;8.57;100.00
70370;BME280;57790;51.356;-2.906;2023-03-14T05:34:08;100049.66;;;8.54;100.00
70370;BME280;57790;51.356;-2.906;2023-03-14T05:37:09;100045.66;;;8.58;100.00
70370;BME280;57790;51.356;-2.906;2023-03-14T05:40:10;100054.59;;;8.57;100.00
70370;BME280;57790;51.356;-2.906;2023-03-14T05:43:10;100060.34;;;8.53;100.00
70370;BME280;57790;51.356;-2.906;2023-03-14T05:46:10;100076.38;;;8.51;100.00
70370;BME280;57790;51.356;-2.906;2023-03-14T05:49:11;100078.34;;;8.49;100.00
70370;BME280;57790;51.356;-2.906;2023-03-14T05:52:11;100086.63;;;8.46;100.00
70370;BME280;57790;51.356;-2.906;2023-03-14T05:55:12;100106.75;;;8.47;100.00
70370;BME280;57790;51.356;-2.906;2023-03-14T05:58:12;100111.38;;;8.45;100.00
70370;BME280;57790;51.356;-2.906;2023-03-14T06:01:12;100115.19;;;8.43;100.00
70370;BME280;57790;51.356;-2.906;2023-03-14T06:04:13;100123.59;;;8.46;100.00
70370;BME280;57790;51.356;-2.906;2023-03-14T06:07:13;100138.47;;;8.39;100.00
70370;BME280;57790;51.356;-2.906;2023-03-14T06:10:14;100140.41;;;8.37;100.00
70370;BME280;57790;51.356;-2.906;2023-03-14T06:13:14;100139.28;;;8.40;100.00
70370;BME280;57790;51.356;-2.906;2023-03-14T06:16:15;100140.75;;;8.34;100.00
70370;BME280;57790;51.356;-2.906;2023-03-14T06:19:16;100147.16;;;8.31;100.00
70370;BME280;57790;51.356;-2.906;2023-03-14T06:22:16;100146.31;;;8.31;100.00
70370;BME280;57790;51.356;-2.906;2023-03-14T06:25:17;100157.53;;;8.33;100.00
70370;BME280;57790;51.356;-2.906;2023-03-14T06:28:17;100162.00;;;8.32;100.00
70370;BME280;57790;51.356;-2.906;2023-03-14T06:31:18;100165.81;;;8.30;100.00
70370;BME280;57790;51.356;-2.906;2023-03-14T06:34:19;100176.53;;;8.28;100.00
70370;BME280;57790;51.356;-2.906;2023-03-14T06:37:19;100176.38;;;8.30;100.00
70370;BME280;57790;51.356;-2.906;2023-03-14T06:40:20;100188.56;;;8.31;100.00
70370;BME280;57790;51.356;-2.906;2023-03-14T06:43:20;100192.22;;;8.30;100.00
70370;BME280;57790;51.356;-2.906;2023-03-14T06:46:21;100218.94;;;8.27;100.00
70370;BME280;57790;51.356;-2.906;2023-03-14T06:49:21;100227.84;;;8.26;100.00
70370;BME280;57790;51.356;-2.906;2023-03-14T06:52:22;100240.06;;;8.27;100.00
70370;BME280;57790;51.356;-2.906;2023-03-14T06:55:22;100255.25;;;8.25;100.00
70370;BME280;57790;51.356;-2.906;2023-03-14T06:58:23;100275.38;;;8.26;100.00
70370;BME280;57790;51.356;-2.906;2023-03-14T07:01:25;100284.97;;;8.27;100.00
70370;BME280;57790;51.356;-2.906;2023-03-14T07:04:26;100286.78;;;8.26;100.00
70370;BME280;57790;51.356;-2.906;2023-03-14T07:07:27;100289.59;;;8.33;100.00
70370;BME280;57790;51.356;-2.906;2023-03-14T07:10:28;100305.16;;;8.36;100.00
70370;BME280;57790;51.356;-2.906;2023-03-14T07:13:28;100311.09;;;8.38;100.00
70370;BME280;57790;51.356;-2.906;2023-03-14T07:16:28;100310.97;;;8.40;100.00
70370;BME280;57790;51.356;-2.906;2023-03-14T07:19:31;100317.34;;;8.37;100.00
70370;BME280;57790;51.356;-2.906;2023-03-14T07:22:32;100329.78;;;8.45;100.00
70370;BME280;57790;51.356;-2.906;2023-03-14T07:25:32;100326.31;;;8.44;100.00
70370;BME280;57790;51.356;-2.906;2023-03-14T07:28:33;100332.59;;;8.43;100.00
70370;BME280;57790;51.356;-2.906;2023-03-14T07:31:33;100337.38;;;8.48;100.00
70370;BME280;57790;51.356;-2.906;2023-03-14T07:34:34;100337.22;;;8.49;100.00
70370;BME280;57790;51.356;-2.906;2023-03-14T07:37:34;100346.13;;;8.48;100.00
70370;BME280;57790;51.356;-2.906;2023-03-14T07:40:35;100369.31;;;8.54;100.00
70370;BME280;57790;51.356;-2.906;2023-03-14T07:43:35;100379.53;;;8.57;100.00
70370;BME280;57790;51.356;-2.906;2023-03-14T07:46:35;100407.63;;;8.58;100.00
70370;BME280;57790;51.356;-2.906;2023-03-14T07:49:36;100410.94;;;8.60;100.00
70370;BME280;57790;51.356;-2.906;2023-03-14T07:52:36;100423.66;;;8.65;100.00
70370;BME280;57790;51.356;-2.906;2023-03-14T07:55:37;100425.84;;;8.70;100.00
70370;BME280;57790;51.356;-2.906;2023-03-14T07:58:37;100433.94;;;8.76;100.00
70370;BME280;57790;51.356;-2.906;2023-03-14T08:01:38;100453.59;;;8.74;100.00
70370;BME280;57790;51.356;-2.906;2023-03-14T08:04:39;100476.41;;;8.75;100.00
70370;BME280;57790;51.356;-2.906;2023-03-14T08:07:40;100490.28;;;8.77;100.00
70370;BME280;57790;51.356;-2.906;2023-03-14T08:10:40;100488.31;;;8.79;100.00
70370;BME280;57790;51.356;-2.906;2023-03-14T08:13:41;100495.25;;;8.80;100.00
70370;BME280;57790;51.356;-2.906;2023-03-14T08:16:42;100503.72;;;8.83;100.00
70370;BME280;57790;51.356;-2.906;2023-03-14T08:19:42;100516.44;;;8.88;100.00
70370;BME280;57790;51.356;-2.906;2023-03-14T08:22:42;100521.41;;;8.91;100.00
70370;BME280;57790;51.356;-2.906;2023-03-14T08:25:43;100537.94;;;8.93;100.00
70370;BME280;57790;51.356;-2.906;2023-03-14T08:28:43;100551.53;;;8.98;100.00
70370;BME280;57790;51.356;-2.906;2023-03-14T08:31:44;100565.44;;;9.00;100.00
70370;BME280;57790;51.356;-2.906;2023-03-14T08:34:44;100567.59;;;9.05;100.00
70370;BME280;57790;51.356;-2.906;2023-03-14T08:37:45;100579.81;;;9.06;100.00
70370;BME280;57790;51.356;-2.906;2023-03-14T08:40:45;100589.41;;;9.07;100.00
70370;BME280;57790;51.356;-2.906;2023-03-14T08:43:45;100602.19;;;9.11;100.00
70370;BME280;57790;51.356;-2.906;2023-03-14T08:46:46;100608.81;;;9.15;100.00
70370;BME280;57790;51.356;-2.906;2023-03-14T08:49:46;100623.72;;;9.24;100.00
70370;BME280;57790;51.356;-2.906;2023-03-14T08:52:47;100627.38;;;9.23;100.00
70370;BME280;57790;51.356;-2.906;2023-03-14T08:55:52;100641.56;;;9.22;100.00
70370;BME280;57790;51.356;-2.906;2023-03-14T08:58:53;100660.63;;;9.26;100.00
70370;BME280;57790;51.356;-2.906;2023-03-14T09:01:54;100664.09;;;9.27;100.00
70370;BME280;57790;51.356;-2.906;2023-03-14T09:04:54;100674.38;;;9.30;100.00
70370;BME280;57790;51.356;-2.906;2023-03-14T09:07:55;100679.81;;;9.28;100.00
70370;BME280;57790;51.356;-2.906;2023-03-14T09:10:55;100688.44;;;9.30;100.00
70370;BME280;57790;51.356;-2.906;2023-03-14T09:13:56;100702.16;;;9.34;100.00
70370;BME280;57790;51.356;-2.906;2023-03-14T09:16:56;100707.63;;;9.32;100.00
70370;BME280;57790;51.356;-2.906;2023-03-14T09:19:57;100716.19;;;9.26;100.00
70370;BME280;57790;51.356;-2.906;2023-03-14T09:22:57;100727.88;;;9.23;100.00
70370;BME280;57790;51.356;-2.906;2023-03-14T09:25:58;100737.63;;;9.23;100.00
70370;BME280;57790;51.356;-2.906;2023-03-14T09:28:59;100743.16;;;9.30;100.00
70370;BME280;57790;51.356;-2.906;2023-03-14T09:31:59;100748.59;;;9.28;100.00
70370;BME280;57790;51.356;-2.906;2023-03-14T09:35:00;100756.13;;;9.23;100.00
70370;BME280;57790;51.356;-2.906;2023-03-14T09:38:00;100760.25;;;9.17;100.00
70370;BME280;57790;51.356;-2.906;2023-03-14T09:41:03;100776.41;;;9.14;100.00
70370;BME280;57790;51.356;-2.906;2023-03-14T09:44:21;100778.59;;;9.19;100.00
70370;BME280;57790;51.356;-2.906;2023-03-14T09:47:24;100781.84;;;9.31;100.00
70370;BME280;57790;51.356;-2.906;2023-03-14T09:50:32;100798.53;;;9.31;100.00
70370;BME280;57790;51.356;-2.906;2023-03-14T09:53:45;100817.22;;;9.30;100.00
70370;BME280;57790;51.356;-2.906;2023-03-14T09:56:46;100828.31;;;9.33;100.00
70370;BME280;57790;51.356;-2.906;2023-03-14T09:59:48;100838.81;;;9.25;100.00
70370;BME280;57790;51.356;-2.906;2023-03-14T10:06:11;100864.69;;;9.13;100.00
70370;BME280;57790;51.356;-2.906;2023-03-14T10:09:17;100876.63;;;9.17;100.00
70370;BME280;57790;51.356;-2.906;2023-03-14T10:12:20;100879.09;;;9.19;100.00
70370;BME280;57790;51.356;-2.906;2023-03-14T10:15:32;100903.00;;;9.27;100.00
70370;BME280;57790;51.356;-2.906;2023-03-14T10:18:33;100901.63;;;9.23;100.00
70370;BME280;57790;51.356;-2.906;2023-03-14T10:21:41;100919.41;;;9.31;100.00
70370;BME280;57790;51.356;-2.906;2023-03-14T10:24:52;100917.59;;;9.31;100.00
70370;BME280;57790;51.356;-2.906;2023-03-14T10:27:53;100919.94;;;9.34;100.00
70370;BME280;57790;51.356;-2.906;2023-03-14T10:30:54;100934.66;;;9.37;100.00
70370;BME280;57790;51.356;-2.906;2023-03-14T10:34:03;100946.91;;;9.38;100.00
70370;BME280;57790;51.356;-2.906;2023-03-14T10:37:24;100976.84;;;9.38;100.00
70370;BME280;57790;51.356;-2.906;2023-03-14T10:40:40;100986.44;;;9.39;100.00
70370;BME280;57790;51.356;-2.906;2023-03-14T10:43:41;100993.44;;;9.40;100.00
70370;BME280;57790;51.356;-2.906;2023-03-14T10:46:42;100995.50;;;9.37;100.00
70370;BME280;57790;51.356;-2.906;2023-03-14T10:49:42;101002.88;;;9.43;100.00
70370;BME280;57790;51.356;-2.906;2023-03-14T10:52:49;101012.34;;;9.45;100.00
70370;BME280;57790;51.356;-2.906;2023-03-14T10:55:50;101022.31;;;9.51;100.00
70370;BME280;57790;51.356;-2.906;2023-03-14T10:58:53;101028.44;;;9.52;100.00
70370;BME280;57790;51.356;-2.906;2023-03-14T11:08:40;101045.41;;;9.59;100.00
70370;BME280;57790;51.356;-2.906;2023-03-14T11:11:45;101049.50;;;9.71;100.00
70370;BME280;57790;51.356;-2.906;2023-03-14T11:14:50;101048.69;;;9.71;100.00
70370;BME280;57790;51.356;-2.906;2023-03-14T11:28:29;101049.69;;;9.88;100.00
70370;BME280;57790;51.356;-2.906;2023-03-14T11:31:35;101055.34;;;9.93;100.00
70370;BME280;57790;51.356;-2.906;2023-03-14T11:34:49;101069.25;;;9.95;100.00
70370;BME280;57790;51.356;-2.906;2023-03-14T11:41:41;101060.88;;;9.99;100.00
70370;BME280;57790;51.356;-2.906;2023-03-14T11:44:48;101064.53;;;9.98;100.00
70370;BME280;57790;51.356;-2.906;2023-03-14T11:48:05;101076.38;;;9.94;100.00
70370;BME280;57790;51.356;-2.906;2023-03-14T11:51:13;101072.16;;;10.01;100.00
70370;BME280;57790;51.356;-2.906;2023-03-14T11:54:24;101080.31;;;10.08;100.00
70370;BME280;57790;51.356;-2.906;2023-03-14T11:57:27;101076.16;;;10.05;100.00
70370;BME280;57790;51.356;-2.906;2023-03-14T12:00:28;101080.31;;;10.08;100.00
70370;BME280;57790;51.356;-2.906;2023-03-14T12:03:43;101079.72;;;10.14;100.00
70370;BME280;57790;51.356;-2.906;2023-03-14T12:06:50;101075.94;;;10.17;100.00
70370;BME280;57790;51.356;-2.906;2023-03-14T12:09:51;101077.59;;;10.18;100.00
70370;BME280;57790;51.356;-2.906;2023-03-14T12:12:52;101084.41;;;10.20;100.00
70370;BME280;57790;51.356;-2.906;2023-03-14T12:15:57;101089.28;;;10.25;100.00
70370;BME280;57790;51.356;-2.906;2023-03-14T12:22:30;101097.25;;;10.42;100.00
70370;BME280;57790;51.356;-2.906;2023-03-14T12:25:33;101100.56;;;10.45;100.00
70370;BME280;57790;51.356;-2.906;2023-03-14T12:28:34;101090.97;;;10.43;100.00
70370;BME280;57790;51.356;-2.906;2023-03-14T12:34:44;101095.31;;;10.53;100.00
70370;BME280;57790;51.356;-2.906;2023-03-14T12:37:48;101099.88;;;10.60;100.00
70370;BME280;57790;51.356;-2.906;2023-03-14T12:41:23;101107.66;;;10.62;100.00
70370;BME280;57790;51.356;-2.906;2023-03-14T12:50:37;101107.63;;;10.80;100.00
70370;BME280;57790;51.356;-2.906;2023-03-14T12:57:23;101121.84;;;10.96;100.00
70370;BME280;57790;51.356;-2.906;2023-03-14T13:00:33;101124.88;;;11.01;100.00
70370;BME280;57790;51.356;-2.906;2023-03-14T13:03:43;101125.91;;;11.09;100.00
70370;BME280;57790;51.356;-2.906;2023-03-14T13:06:57;101127.56;;;11.10;100.00
70370;BME280;57790;51.356;-2.906;2023-03-14T13:13:17;101126.22;;;11.06;100.00
70370;BME280;57790;51.356;-2.906;2023-03-14T13:16:21;101121.25;;;11.11;100.00
70370;BME280;57790;51.356;-2.906;2023-03-14T13:19:25;101126.72;;;11.09;100.00
70370;BME280;57790;51.356;-2.906;2023-03-14T13:22:32;101127.63;;;11.18;100.00
70370;BME280;57790;51.356;-2.906;2023-03-14T13:25:35;101127.63;;;11.18;100.00
70370;BME280;57790;51.356;-2.906;2023-03-14T13:28:35;101128.31;;;11.20;100.00
70370;BME280;57790;51.356;-2.906;2023-03-14T13:31:36;101128.31;;;11.20;100.00
70370;BME280;57790;51.356;-2.906;2023-03-14T13:34:36;101132.88;;;11.36;100.00
70370;BME280;57790;51.356;-2.906;2023-03-14T13:37:39;101138.69;;;11.39;100.00
70370;BME280;57790;51.356;-2.906;2023-03-14T13:40:43;101140.81;;;11.36;100.00
70370;BME280;57790;51.356;-2.906;2023-03-14T13:43:44;101146.72;;;11.21;100.00
70370;BME280;57790;51.356;-2.906;2023-03-14T13:46:44;101155.81;;;11.19;100.00
70370;BME280;57790;51.356;-2.906;2023-03-14T13:49:45;101163.78;;;11.19;100.00
70370;BME280;57790;51.356;-2.906;2023-03-14T13:52:46;101165.94;;;11.15;100.00
70370;BME280;57790;51.356;-2.906;2023-03-14T13:55:49;101175.22;;;11.19;100.00
70370;BME280;57790;51.356;-2.906;2023-03-14T13:58:50;101174.91;;;11.22;100.00
70370;BME280;57790;51.356;-2.906;2023-03-14T14:01:51;101181.84;;;11.15;100.00
70370;BME280;57790;51.356;-2.906;2023-03-14T14:04:52;101193.34;;;11.24;100.00
70370;BME280;57790;51.356;-2.906;2023-03-14T14:07:53;101172.09;;;11.24;100.00
70370;BME280;57790;51.356;-2.906;2023-03-14T14:10:58;101189.91;;;11.31;100.00
70370;BME280;57790;51.356;-2.906;2023-03-14T14:14:01;101192.50;;;11.23;100.00
70370;BME280;57790;51.356;-2.906;2023-03-14T14:17:07;101196.22;;;11.30;100.00
70370;BME280;57790;51.356;-2.906;2023-03-14T14:23:35;101200.41;;;11.41;100.00
70370;BME280;57790;51.356;-2.906;2023-03-14T14:26:40;101186.47;;;11.39;100.00
70370;BME280;57790;51.356;-2.906;2023-03-14T14:29:41;101199.03;;;11.29;100.00
70370;BME280;57790;51.356;-2.906;2023-03-14T14:32:41;101202.22;;;11.41;100.00
70370;BME280;57790;51.356;-2.906;2023-03-14T14:35:42;101210.00;;;11.34;100.00
70370;BME280;57790;51.356;-2.906;2023-03-14T14:39:01;101219.47;;;11.37;100.00
70370;BME280;57790;51.356;-2.906;2023-03-14T14:42:12;101223.03;;;11.45;100.00
70370;BME280;57790;51.356;-2.906;2023-03-14T14:45:17;101219.69;;;11.43;100.00
70370;BME280;57790;51.356;-2.906;2023-03-14T14:48:21;101219.22;;;11.48;100.00
70370;BME280;57790;51.356;-2.906;2023-03-14T14:51:24;101216.91;;;11.53;100.00
70370;BME280;57790;51.356;-2.906;2023-03-14T14:54:34;101218.41;;;11.55;100.00
70370;BME280;57790;51.356;-2.906;2023-03-14T14:57:38;101221.06;;;11.55;100.00
70370;BME280;57790;51.356;-2.906;2023-03-14T15:00:41;101235.00;;;11.49;100.00
70370;BME280;57790;51.356;-2.906;2023-03-14T15:03:44;101225.00;;;11.43;100.00
70370;BME280;57790;51.356;-2.906;2023-03-14T15:06:47;101240.81;;;11.53;100.00
70370;BME280;57790;51.356;-2.906;2023-03-14T15:09:49;101240.31;;;11.49;100.00
70370;BME280;57790;51.356;-2.906;2023-03-14T15:12:49;101243.63;;;11.51;100.00
70370;BME280;57790;51.356;-2.906;2023-03-14T15:15:50;101246.97;;;11.53;100.00
70370;BME280;57790;51.356;-2.906;2023-03-14T15:19:00;101240.88;;;11.61;100.00
70370;BME280;57790;51.356;-2.906;2023-03-14T15:22:00;101254.31;;;11.59;100.00
70370;BME280;57790;51.356;-2.906;2023-03-14T15:25:01;101250.50;;;11.62;100.00
70370;BME280;57790;51.356;-2.906;2023-03-14T15:28:01;101258.63;;;11.60;100.00
70370;BME280;57790;51.356;-2.906;2023-03-14T15:31:02;101264.31;;;11.66;100.00
70370;BME280;57790;51.356;-2.906;2023-03-14T15:34:02;101264.31;;;11.66;100.00
70370;BME280;57790;51.356;-2.906;2023-03-14T15:37:03;101258.00;;;11.67;100.00
70370;BME280;57790;51.356;-2.906;2023-03-14T15:40:11;101272.09;;;11.67;100.00
70370;BME280;57790;51.356;-2.906;2023-03-14T15:43:14;101274.44;;;11.70;100.00
70370;BME280;57790;51.356;-2.906;2023-03-14T15:46:14;101272.50;;;11.72;100.00
70370;BME280;57790;51.356;-2.906;2023-03-14T15:49:17;101277.09;;;11.70;100.00
70370;BME280;57790;51.356;-2.906;2023-03-14T15:52:17;101270.66;;;11.73;100.00
70370;BME280;57790;51.356;-2.906;2023-03-14T15:55:17;101283.94;;;11.73;100.00
70370;BME280;57790;51.356;-2.906;2023-03-14T15:58:19;101271.66;;;11.72;100.00
70370;BME280;57790;51.356;-2.906;2023-03-14T16:01:19;101280.31;;;11.74;100.00
70370;BME280;57790;51.356;-2.906;2023-03-14T16:04:20;101280.47;;;11.72;100.00
70370;BME280;57790;51.356;-2.906;2023-03-14T16:07:20;101281.41;;;11.71;100.00
70370;BME280;57790;51.356;-2.906;2023-03-14T16:10:20;101275.28;;;11.71;100.00
70370;BME280;57790;51.356;-2.906;2023-03-14T16:13:21;101284.06;;;11.71;100.00
70370;BME280;57790;51.356;-2.906;2023-03-14T16:16:21;101288.56;;;11.71;100.00
70370;BME280;57790;51.356;-2.906;2023-03-14T16:19:24;101290.09;;;11.73;100.00
70370;BME280;57790;51.356;-2.906;2023-03-14T16:22:26;101286.59;;;11.73;100.00
70370;BME280;57790;51.356;-2.906;2023-03-14T16:25:26;101281.13;;;11.74;100.00
70370;BME280;57790;51.356;-2.906;2023-03-14T16:28:26;101279.63;;;11.72;100.00
70370;BME280;57790;51.356;-2.906;2023-03-14T16:31:27;101298.06;;;11.73;100.00
70370;BME280;57790;51.356;-2.906;2023-03-14T16:34:27;101286.59;;;11.73;100.00
70370;BME280;57790;51.356;-2.906;2023-03-14T16:37:28;101290.44;;;11.78;100.00
70370;BME280;57790;51.356;-2.906;2023-03-14T16:40:28;101294.25;;;11.76;100.00